createdAt,value
2023-03-03T00:01:17.266Z,101474.53
2023-03-03T00:03:44.077Z,101480.50
2023-03-03T00:06:13.088Z,101479.81
2023-03-03T00:08:40.636Z,101472.84
2023-03-03T00:11:07.970Z,101477.28
2023-03-03T00:13:56.561Z,101475.91
2023-03-03T00:16:31.672Z,101471.03
2023-03-03T00:18:58.921Z,101465.88
2023-03-03T00:21:31.776Z,101466.31
2023-03-03T00:24:13.947Z,101468.09
2023-03-03T00:26:44.193Z,101470.34
2023-03-03T00:29:35.834Z,101460.16
2023-03-03T00:32:21.277Z,101458.28
2023-03-03T00:34:49.952Z,101460.00
2023-03-03T00:37:34.546Z,101465.59
2023-03-03T00:40:21.454Z,101461.84
2023-03-03T00:43:00.878Z,101469.19
2023-03-03T00:45:31.275Z,101462.47
2023-03-03T00:47:58.928Z,101462.84
2023-03-03T00:50:33.452Z,101462.09
2023-03-03T00:53:10.900Z,101461.53
2023-03-03T00:55:37.882Z,101460.53
2023-03-03T00:58:05.177Z,101461.09
2023-03-03T01:00:37.263Z,101460.47
2023-03-03T01:03:08.679Z,101460.47
2023-03-03T01:05:36.653Z,101457.28
2023-03-03T01:08:04.493Z,101457.72
2023-03-03T01:10:35.022Z,101455.59
2023-03-03T01:13:02.180Z,101457.56
2023-03-03T01:15:29.022Z,101454.94
2023-03-03T01:17:55.985Z,101464.06
2023-03-03T01:20:22.989Z,101452.25
2023-03-03T01:22:49.745Z,101459.31
2023-03-03T01:25:16.719Z,101446.25
2023-03-03T01:27:43.439Z,101449.34
2023-03-03T01:30:10.708Z,101448.25
2023-03-03T01:32:37.892Z,101443.91
2023-03-03T01:35:05.096Z,101450.59
2023-03-03T01:37:31.810Z,101448.22
2023-03-03T01:39:58.581Z,101446.69
2023-03-03T01:42:29.194Z,101449.75
2023-03-03T01:45:15.997Z,101445.16
2023-03-03T01:48:25.745Z,101443.06
2023-03-03T01:50:57.755Z,101441.25
2023-03-03T01:53:38.760Z,101440.44
2023-03-03T01:56:08.889Z,101449.97
2023-03-03T01:58:49.604Z,101446.66
2023-03-03T02:01:23.044Z,101446.44
2023-03-03T02:03:50.877Z,101449.16
2023-03-03T02:06:22.586Z,101434.56
2023-03-03T02:09:44.612Z,101439.53
2023-03-03T02:12:13.875Z,101431.78
2023-03-03T02:14:40.691Z,101427.34
2023-03-03T02:17:07.565Z,101431.63
2023-03-03T02:19:58.683Z,101428.41
2023-03-03T02:22:38.007Z,101425.63
2023-03-03T02:25:08.291Z,101419.78
2023-03-03T02:27:36.502Z,101420.91
2023-03-03T02:30:16.677Z,101427.44
2023-03-03T02:32:43.891Z,101423.69
2023-03-03T02:35:33.623Z,101424.78
2023-03-03T02:38:10.883Z,101420.91
2023-03-03T02:40:43.056Z,101417.56
2023-03-03T02:43:11.952Z,101413.41
2023-03-03T02:45:45.750Z,101416.31
2023-03-03T02:48:12.580Z,101428.41
2023-03-03T02:50:39.500Z,101422.25
2023-03-03T02:53:06.206Z,101418.09
2023-03-03T02:55:33.082Z,101406.41
2023-03-03T02:57:59.951Z,101414.06
2023-03-03T03:00:26.750Z,101412.66
2023-03-03T03:02:53.584Z,101415.28
2023-03-03T03:05:20.370Z,101404.72
2023-03-03T03:07:47.217Z,101411.50
2023-03-03T03:10:14.166Z,101412.63
2023-03-03T03:12:41.622Z,101412.88
2023-03-03T03:15:10.920Z,101404.66
2023-03-03T03:17:39.052Z,101401.47
2023-03-03T03:20:07.247Z,101407.41
2023-03-03T03:22:34.808Z,101407.78
2023-03-03T03:25:01.940Z,101404.56
2023-03-03T03:27:29.537Z,101414.69
2023-03-03T03:29:56.312Z,101409.81
2023-03-03T03:32:23.585Z,101408.91
2023-03-03T03:34:51.094Z,101402.06
2023-03-03T03:37:18.219Z,101395.69
2023-03-03T03:39:46.391Z,101404.78
2023-03-03T03:42:13.806Z,101403.34
2023-03-03T03:44:41.323Z,101396.50
2023-03-03T03:47:08.352Z,101405.50
2023-03-03T03:49:35.927Z,101397.88
2023-03-03T03:52:03.556Z,101401.84
2023-03-03T03:54:32.691Z,101402.94
2023-03-03T03:56:59.626Z,101400.72
2023-03-03T03:59:27.477Z,101393.94
2023-03-03T04:01:54.621Z,101396.31
2023-03-03T04:04:23.208Z,101384.22
2023-03-03T04:06:50.954Z,101385.50
2023-03-03T04:09:17.868Z,101397.53
2023-03-03T04:11:45.634Z,101404.94
2023-03-03T04:14:13.471Z,101401.47
2023-03-03T04:16:40.221Z,101395.59
2023-03-03T04:19:07.104Z,101404.25
2023-03-03T04:21:36.679Z,101405.81
2023-03-03T04:24:03.640Z,101395.66
2023-03-03T04:26:31.674Z,101401.13
2023-03-03T04:29:01.148Z,101398.56
2023-03-03T04:31:28.906Z,101399.31
2023-03-03T04:33:56.138Z,101400.78
2023-03-03T04:36:23.652Z,101404.16
2023-03-03T04:38:50.494Z,101398.75
2023-03-03T04:41:18.234Z,101394.09
2023-03-03T04:43:45.712Z,101397.41
2023-03-03T04:46:13.841Z,101392.78
2023-03-03T04:48:40.648Z,101388.47
2023-03-03T04:51:07.573Z,101388.00
2023-03-03T04:53:38.377Z,101384.19
2023-03-03T04:56:07.521Z,101385.34
2023-03-03T04:58:34.951Z,101384.38
2023-03-03T05:01:01.990Z,101383.97
2023-03-03T05:03:31.204Z,101379.88
2023-03-03T05:05:59.302Z,101389.00
2023-03-03T05:08:26.101Z,101381.91
2023-03-03T05:10:54.234Z,101377.28
2023-03-03T05:13:21.299Z,101374.59
2023-03-03T05:15:52.741Z,101382.41
2023-03-03T05:18:20.427Z,101388.81
2023-03-03T05:20:47.302Z,101387.06
2023-03-03T05:23:14.083Z,101381.94
2023-03-03T05:25:42.370Z,101388.63
2023-03-03T05:28:10.874Z,101385.25
2023-03-03T05:30:37.703Z,101392.69
2023-03-03T05:33:05.492Z,101392.88
2023-03-03T05:35:33.108Z,101396.63
2023-03-03T05:38:00.031Z,101398.03
2023-03-03T05:40:27.771Z,101399.97
2023-03-03T05:42:54.592Z,101399.06
2023-03-03T05:45:21.476Z,101410.31
2023-03-03T05:47:48.544Z,101412.88
2023-03-03T05:50:15.498Z,101412.66
2023-03-03T05:52:42.631Z,101417.81
2023-03-03T05:55:10.104Z,101421.41
2023-03-03T05:57:36.873Z,101417.25
2023-03-03T06:00:06.118Z,101417.16
2023-03-03T06:02:39.941Z,101420.31
2023-03-03T06:05:07.090Z,101413.31
2023-03-03T06:07:33.895Z,101420.63
2023-03-03T06:10:00.686Z,101417.53
2023-03-03T06:12:31.208Z,101420.78
2023-03-03T06:14:57.943Z,101425.69
2023-03-03T06:17:24.681Z,101418.03
2023-03-03T06:19:51.486Z,101407.13
2023-03-03T06:22:18.328Z,101418.25
2023-03-03T06:24:45.084Z,101423.41
2023-03-03T06:27:11.847Z,101424.63
2023-03-03T06:29:38.709Z,101426.91
2023-03-03T06:32:05.714Z,101422.34
2023-03-03T06:34:32.582Z,101428.19
2023-03-03T06:36:59.812Z,101434.69
2023-03-03T06:39:26.602Z,101433.84
2023-03-03T06:41:53.328Z,101430.00
2023-03-03T06:44:20.225Z,101430.34
2023-03-03T06:46:47.056Z,101441.50
2023-03-03T06:49:13.889Z,101438.63
2023-03-03T06:51:41.199Z,101442.59
2023-03-03T06:54:16.872Z,101438.50
2023-03-03T06:56:45.129Z,101442.91
2023-03-03T06:59:21.034Z,101443.97
2023-03-03T07:01:49.872Z,101451.63
2023-03-03T07:04:31.771Z,101454.00
2023-03-03T07:07:14.935Z,101454.06
2023-03-03T07:09:45.195Z,101459.47
2023-03-03T07:12:16.909Z,101461.69
2023-03-03T07:14:46.419Z,101466.31
2023-03-03T07:17:19.227Z,101469.47
2023-03-03T07:19:46.905Z,101477.25
2023-03-03T07:22:28.671Z,101471.09
2023-03-03T07:25:01.893Z,101472.06
2023-03-03T07:27:30.605Z,101476.63
2023-03-03T07:30:24.325Z,101485.06
2023-03-03T07:32:56.485Z,101480.09
2023-03-03T07:35:49.724Z,101478.38
2023-03-03T07:38:32.124Z,101474.53
2023-03-03T07:41:01.598Z,101485.25
2023-03-03T07:43:50.730Z,101483.19
2023-03-03T07:46:28.689Z,101496.28
2023-03-03T07:48:57.647Z,101504.91
2023-03-03T07:51:28.067Z,101497.31
2023-03-03T07:54:28.497Z,101497.06
2023-03-03T07:57:32.792Z,101502.66
2023-03-03T08:00:14.389Z,101503.75
2023-03-03T08:02:47.402Z,101503.44
2023-03-03T08:05:34.028Z,101509.38
2023-03-03T08:08:09.812Z,101502.16
2023-03-03T08:10:48.790Z,101508.22
2023-03-03T08:13:29.754Z,101505.56
2023-03-03T08:16:16.845Z,101512.91
2023-03-03T08:18:53.307Z,101513.09
2023-03-03T08:21:23.096Z,101514.38
2023-03-03T08:23:51.795Z,101524.28
2023-03-03T08:26:20.276Z,101518.41
2023-03-03T08:28:47.670Z,101524.25
2023-03-03T08:31:22.541Z,101520.81
2023-03-03T08:33:54.870Z,101522.78
2023-03-03T08:36:21.866Z,101524.53
2023-03-03T08:38:48.611Z,101524.97
2023-03-03T08:41:15.447Z,101526.88
2023-03-03T08:43:43.282Z,101524.38
2023-03-03T08:46:11.803Z,101524.81
2023-03-03T08:48:41.638Z,101522.56
2023-03-03T08:51:08.402Z,101525.50
2023-03-03T08:53:36.704Z,101526.47
2023-03-03T08:56:04.535Z,101514.09
2023-03-03T08:58:35.549Z,101515.75
2023-03-03T09:01:04.268Z,101522.84
2023-03-03T09:03:31.244Z,101521.03
2023-03-03T09:05:58.148Z,101524.94
2023-03-03T09:08:24.912Z,101528.22
2023-03-03T09:10:51.660Z,101524.59
2023-03-03T09:13:20.417Z,101527.38
2023-03-03T09:15:49.089Z,101521.34
2023-03-03T09:18:22.512Z,101520.34
2023-03-03T09:20:51.643Z,101522.28
2023-03-03T09:23:41.901Z,101519.19
2023-03-03T09:26:11.737Z,101520.00
2023-03-03T09:28:38.529Z,101523.63
2023-03-03T09:31:22.239Z,101521.94
2023-03-03T09:33:55.103Z,101527.38
2023-03-03T09:36:36.765Z,101523.47
2023-03-03T09:39:33.630Z,101529.09
2023-03-03T09:42:21.598Z,101525.16
2023-03-03T09:45:07.132Z,101530.31
2023-03-03T09:48:04.955Z,101534.78
2023-03-03T09:50:52.853Z,101528.94
2023-03-03T09:53:25.779Z,101517.34
2023-03-03T09:56:10.421Z,101525.38
2023-03-03T09:58:46.342Z,101522.41
2023-03-03T10:01:21.911Z,101519.25
2023-03-03T10:04:00.625Z,101523.63
2023-03-03T10:06:53.265Z,101526.88
2023-03-03T10:09:50.726Z,101524.56
2023-03-03T10:12:24.047Z,101522.38
2023-03-03T10:15:20.188Z,101513.31
2023-03-03T10:18:12.186Z,101516.56
2023-03-03T10:20:55.904Z,101513.25
2023-03-03T10:24:00.908Z,101511.16
2023-03-03T10:26:45.770Z,101515.00
2023-03-03T10:29:37.573Z,101511.50
2023-03-03T10:32:36.745Z,101503.84
2023-03-03T10:35:31.122Z,101502.66
2023-03-03T10:38:19.628Z,101512.84
2023-03-03T10:40:46.379Z,101511.78
2023-03-03T10:43:31.049Z,101512.09
2023-03-03T10:46:10.630Z,101515.44
2023-03-03T10:49:05.307Z,101508.38
2023-03-03T10:51:52.293Z,101505.72
2023-03-03T10:54:37.479Z,101510.31
2023-03-03T10:57:35.049Z,101512.97
2023-03-03T11:00:16.814Z,101508.63
2023-03-03T11:03:01.942Z,101507.94
2023-03-03T11:06:09.921Z,101504.94
2023-03-03T11:09:02.986Z,101510.56
2023-03-03T11:11:32.620Z,101507.69
2023-03-03T11:14:21.958Z,101505.91
2023-03-03T11:17:01.488Z,101500.84
2023-03-03T11:19:57.632Z,101495.28
2023-03-03T11:22:33.618Z,101490.38
2023-03-03T11:25:23.313Z,101496.03
2023-03-03T11:28:05.815Z,101501.44
2023-03-03T11:30:43.723Z,101494.16
2023-03-03T11:33:18.254Z,101502.69
2023-03-03T11:35:51.224Z,101497.66
2023-03-03T11:38:36.257Z,101496.88
2023-03-03T11:41:13.591Z,101493.41
2023-03-03T11:44:06.367Z,101492.22
2023-03-03T11:46:40.607Z,101498.53
2023-03-03T11:49:16.625Z,101497.34
2023-03-03T11:51:43.428Z,101492.47
2023-03-03T11:54:15.922Z,101494.91
2023-03-03T11:56:47.389Z,101491.69
2023-03-03T11:59:35.575Z,101486.03
2023-03-03T12:02:37.199Z,101487.25
2023-03-03T12:05:27.433Z,101482.38
2023-03-03T12:08:07.760Z,101477.88
2023-03-03T12:10:37.243Z,101472.59
2023-03-03T12:13:11.623Z,101462.66
2023-03-03T12:16:11.933Z,101468.56
2023-03-03T12:19:11.396Z,101472.91
2023-03-03T12:21:58.038Z,101463.47
2023-03-03T12:24:34.352Z,101466.22
2023-03-03T12:27:07.671Z,101473.28
2023-03-03T12:29:40.259Z,101476.53
2023-03-03T12:32:35.303Z,101477.94
2023-03-03T12:35:16.338Z,101468.31
2023-03-03T12:38:33.905Z,101466.56
2023-03-03T12:41:09.487Z,101462.28
2023-03-03T12:44:04.270Z,101465.72
2023-03-03T12:46:39.814Z,101464.63
2023-03-03T12:49:06.658Z,101462.91
2023-03-03T12:51:58.893Z,101454.81
2023-03-03T12:54:53.682Z,101443.13
2023-03-03T12:57:20.461Z,101448.47
2023-03-03T13:00:16.518Z,101444.94
2023-03-03T13:02:58.492Z,101445.59
2023-03-03T13:05:39.310Z,101433.34
2023-03-03T13:08:31.901Z,101429.56
2023-03-03T13:11:16.451Z,101435.53
2023-03-03T13:13:50.909Z,101435.34
2023-03-03T13:16:38.881Z,101432.50
2023-03-03T13:19:32.709Z,101431.19
2023-03-03T13:22:08.565Z,101432.22
2023-03-03T13:24:50.381Z,101424.63
2023-03-03T13:27:20.843Z,101414.91
2023-03-03T13:30:03.969Z,101424.03
2023-03-03T13:32:43.265Z,101420.81
2023-03-03T13:35:19.321Z,101416.84
2023-03-03T13:37:49.673Z,101414.44
2023-03-03T13:40:19.585Z,101421.00
2023-03-03T13:43:12.600Z,101414.81
2023-03-03T13:45:54.153Z,101414.44
2023-03-03T13:48:51.393Z,101420.06
2023-03-03T13:51:55.696Z,101409.91
2023-03-03T13:54:41.081Z,101409.56
2023-03-03T13:57:25.921Z,101408.97
2023-03-03T14:00:30.222Z,101407.16
2023-03-03T14:03:30.336Z,101411.09
2023-03-03T14:06:05.348Z,101405.56
2023-03-03T14:08:52.075Z,101404.81
2023-03-03T14:11:35.979Z,101404.66
2023-03-03T14:14:17.912Z,101401.72
2023-03-03T14:16:52.711Z,101412.50
2023-03-03T14:19:51.888Z,101397.84
2023-03-03T14:22:26.222Z,101395.88
2023-03-03T14:24:59.473Z,101392.50
2023-03-03T14:27:34.271Z,101391.16
2023-03-03T14:30:29.920Z,101396.53
2023-03-03T14:33:05.939Z,101401.59
2023-03-03T14:35:39.254Z,101401.50
2023-03-03T14:38:18.287Z,101397.66
2023-03-03T14:40:47.322Z,101407.50
2023-03-03T14:43:36.975Z,101401.88
2023-03-03T14:46:15.725Z,101401.41
2023-03-03T14:48:55.185Z,101400.66
2023-03-03T14:51:30.213Z,101394.28
2023-03-03T14:53:57.609Z,101391.16
2023-03-03T14:56:25.022Z,101397.03
2023-03-03T14:58:54.375Z,101400.09
2023-03-03T15:01:22.643Z,101398.97
2023-03-03T15:03:59.184Z,101393.06
2023-03-03T15:06:47.824Z,101387.81
2023-03-03T15:09:26.940Z,101393.81
2023-03-03T15:11:56.785Z,101390.91
2023-03-03T15:14:37.987Z,101390.53
2023-03-03T15:17:22.815Z,101391.72
2023-03-03T15:20:26.974Z,101390.16
2023-03-03T15:23:22.967Z,101390.41
2023-03-03T15:26:06.692Z,101394.88
2023-03-03T15:29:08.034Z,101394.56
2023-03-03T15:31:49.948Z,101394.38
2023-03-03T15:34:37.224Z,101395.41
2023-03-03T15:37:07.050Z,101395.16
2023-03-03T15:40:03.881Z,101395.25
2023-03-03T15:42:42.876Z,101393.41
2023-03-03T15:45:33.857Z,101395.78
2023-03-03T15:48:35.982Z,101392.81
2023-03-03T15:51:30.614Z,101402.31
2023-03-03T15:54:06.401Z,101394.88
2023-03-03T15:56:50.745Z,101405.25
2023-03-03T15:59:26.528Z,101399.47
2023-03-03T16:02:06.910Z,101394.69
2023-03-03T16:04:39.084Z,101393.31
2023-03-03T16:07:17.490Z,101402.50
2023-03-03T16:10:24.977Z,101399.03
2023-03-03T16:13:16.290Z,101404.72
2023-03-03T16:15:53.570Z,101411.06
2023-03-03T16:18:39.802Z,101403.03
2023-03-03T16:21:18.556Z,101402.22
2023-03-03T16:23:49.950Z,101406.91
2023-03-03T16:26:40.866Z,101412.22
2023-03-03T16:29:36.101Z,101401.19
2023-03-03T16:32:13.898Z,101402.09
2023-03-03T16:35:00.024Z,101405.16
2023-03-03T16:37:48.157Z,101413.69
2023-03-03T16:40:22.229Z,101414.63
2023-03-03T16:43:14.674Z,101418.19
2023-03-03T16:45:41.877Z,101410.72
2023-03-03T16:48:37.507Z,101413.72
2023-03-03T16:51:26.136Z,101425.38
2023-03-03T16:54:07.008Z,101433.63
2023-03-03T16:56:37.005Z,101429.03
2023-03-03T16:59:14.018Z,101430.03
2023-03-03T17:02:09.677Z,101441.38
2023-03-03T17:04:39.160Z,101443.00
2023-03-03T17:07:46.288Z,101444.19
2023-03-03T17:10:25.043Z,101442.53
2023-03-03T17:13:18.466Z,101459.44
2023-03-03T17:15:54.062Z,101451.75
2023-03-03T17:18:44.835Z,101455.72
2023-03-03T17:21:56.179Z,101455.63
2023-03-03T17:24:41.530Z,101458.09
2023-03-03T17:27:23.724Z,101469.09
2023-03-03T17:30:02.470Z,101474.97
2023-03-03T17:32:49.723Z,101472.81
2023-03-03T17:35:31.918Z,101474.34
2023-03-03T17:37:58.614Z,101479.84
2023-03-03T17:40:48.634Z,101485.00
2023-03-03T17:43:21.757Z,101486.84
2023-03-03T17:45:52.779Z,101494.34
2023-03-03T17:48:50.377Z,101494.53
2023-03-03T17:51:38.965Z,101498.53
2023-03-03T17:54:23.428Z,101502.00
2023-03-03T17:57:28.113Z,101502.00
2023-03-03T18:00:10.710Z,101503.50
2023-03-03T18:02:56.384Z,101512.31
2023-03-03T18:05:39.132Z,101519.50
2023-03-03T18:08:28.986Z,101520.47
2023-03-03T18:11:14.195Z,101522.50
2023-03-03T18:13:49.874Z,101526.31
2023-03-03T18:16:25.964Z,101529.97
2023-03-03T18:18:59.909Z,101529.97
2023-03-03T18:21:26.691Z,101540.81
2023-03-03T18:24:25.427Z,101534.16
2023-03-03T18:26:56.191Z,101544.78
2023-03-03T18:29:28.121Z,101547.97
2023-03-03T18:31:58.920Z,101551.13
2023-03-03T18:34:33.714Z,101554.97
2023-03-03T18:37:02.477Z,101551.28
2023-03-03T18:39:50.266Z,101559.13
2023-03-03T18:42:17.036Z,101562.13
2023-03-03T18:44:44.864Z,101566.78
2023-03-03T18:47:11.971Z,101563.63
2023-03-03T18:50:18.609Z,101575.94
2023-03-03T18:53:14.235Z,101573.59
2023-03-03T18:55:44.020Z,101580.09
2023-03-03T18:58:13.737Z,101583.06
2023-03-03T19:00:50.561Z,101586.53
2023-03-03T19:03:49.343Z,101585.41
2023-03-03T19:06:48.279Z,101585.84
2023-03-03T19:09:37.962Z,101595.69
2023-03-03T19:12:08.462Z,101597.16
2023-03-03T19:14:46.799Z,101603.31
2023-03-03T19:17:16.642Z,101608.31
2023-03-03T19:20:08.909Z,101611.44
2023-03-03T19:23:04.940Z,101606.31
2023-03-03T19:25:32.664Z,101609.13
2023-03-03T19:28:01.993Z,101604.81
2023-03-03T19:30:41.218Z,101610.81
2023-03-03T19:33:12.239Z,101618.31
2023-03-03T19:35:59.398Z,101622.25
2023-03-03T19:39:13.934Z,101619.94
2023-03-03T19:42:18.152Z,101632.41
2023-03-03T19:44:55.879Z,101634.00
2023-03-03T19:47:26.667Z,101637.38
2023-03-03T19:50:05.228Z,101643.47
2023-03-03T19:52:38.082Z,101643.50
2023-03-03T19:55:23.388Z,101638.88
2023-03-03T19:58:17.703Z,101647.38
2023-03-03T20:00:49.914Z,101650.97
2023-03-03T20:03:35.367Z,101648.78
2023-03-03T20:06:17.317Z,101643.44
2023-03-03T20:08:51.295Z,101646.94
2023-03-03T20:11:48.064Z,101647.22
2023-03-03T20:14:46.046Z,101649.78
2023-03-03T20:17:35.269Z,101646.63
2023-03-03T20:20:26.060Z,101656.22
2023-03-03T20:23:00.637Z,101651.91
2023-03-03T20:25:30.458Z,101653.75
2023-03-03T20:28:25.852Z,101661.25
2023-03-03T20:31:20.840Z,101665.84
2023-03-03T20:33:56.059Z,101660.50
2023-03-03T20:36:52.282Z,101672.88
2023-03-03T20:39:43.302Z,101672.34
2023-03-03T20:42:42.154Z,101683.44
2023-03-03T20:45:27.588Z,101680.78
2023-03-03T20:48:17.841Z,101689.06
2023-03-03T20:50:59.105Z,101684.97
2023-03-03T20:53:51.238Z,101696.72
2023-03-03T20:56:30.108Z,101696.97
2023-03-03T20:59:15.076Z,101700.97
2023-03-03T21:02:12.726Z,101701.38
2023-03-03T21:04:39.763Z,101702.66
2023-03-03T21:07:06.737Z,101704.69
2023-03-03T21:09:38.894Z,101711.50
2023-03-03T21:12:25.746Z,101711.16
2023-03-03T21:15:07.283Z,101714.19
2023-03-03T21:17:34.405Z,101709.88
2023-03-03T21:20:31.848Z,101715.63
2023-03-03T21:23:00.757Z,101716.47
2023-03-03T21:25:47.993Z,101715.75
2023-03-03T21:28:28.013Z,101709.78
2023-03-03T21:31:10.134Z,101716.88
2023-03-03T21:33:53.814Z,101711.84
2023-03-03T21:36:24.777Z,101713.81
2023-03-03T21:38:53.650Z,101722.63
2023-03-03T21:41:20.932Z,101723.75
2023-03-03T21:43:50.803Z,101728.78
2023-03-03T21:46:23.111Z,101730.72
2023-03-03T21:48:50.972Z,101733.22
2023-03-03T21:51:17.806Z,101734.34
2023-03-03T21:53:45.789Z,101733.81
2023-03-03T21:56:15.948Z,101738.72
2023-03-03T21:58:43.306Z,101732.16
2023-03-03T22:01:10.479Z,101737.84
2023-03-03T22:03:37.668Z,101731.88
2023-03-03T22:06:04.733Z,101729.38
2023-03-03T22:08:31.494Z,101740.41
2023-03-03T22:10:58.326Z,101743.06
2023-03-03T22:13:27.342Z,101740.78
2023-03-03T22:15:55.202Z,101742.91
2023-03-03T22:18:22.100Z,101752.09
2023-03-03T22:20:53.298Z,101755.56
2023-03-03T22:23:20.150Z,101752.47
2023-03-03T22:25:47.896Z,101746.91
2023-03-03T22:28:14.820Z,101746.75
2023-03-03T22:30:41.514Z,101753.59
2023-03-03T22:33:08.318Z,101750.53
2023-03-03T22:35:35.206Z,101751.34
2023-03-03T22:38:02.084Z,101750.63
2023-03-03T22:40:29.128Z,101747.75
2023-03-03T22:42:55.924Z,101746.75
2023-03-03T22:45:22.627Z,101747.19
2023-03-03T22:47:49.342Z,101750.97
2023-03-03T22:50:17.082Z,101751.09
2023-03-03T22:52:43.932Z,101758.06
2023-03-03T22:55:11.519Z,101749.16
2023-03-03T22:57:38.315Z,101751.53
2023-03-03T23:00:09.060Z,101756.00
2023-03-03T23:02:35.894Z,101754.63
2023-03-03T23:05:08.293Z,101762.41
2023-03-03T23:07:35.873Z,101764.22
2023-03-03T23:10:04.736Z,101757.50
2023-03-03T23:12:31.565Z,101761.03
2023-03-03T23:14:58.394Z,101760.47
2023-03-03T23:17:25.397Z,101771.34
2023-03-03T23:19:52.345Z,101764.66
2023-03-03T23:22:19.321Z,101767.56
2023-03-03T23:24:46.089Z,101764.78
2023-03-03T23:27:12.848Z,101768.41
2023-03-03T23:29:39.635Z,101771.19
2023-03-03T23:32:06.453Z,101770.06
2023-03-03T23:34:33.510Z,101768.81
2023-03-03T23:37:00.394Z,101768.25
2023-03-03T23:39:27.171Z,101767.72
2023-03-03T23:41:53.933Z,101768.69
2023-03-03T23:44:20.731Z,101769.94
2023-03-03T23:46:47.497Z,101769.38
2023-03-03T23:49:14.431Z,101781.34
2023-03-03T23:51:41.274Z,101782.19
2023-03-03T23:54:07.992Z,101777.88
2023-03-03T23:56:34.911Z,101777.84
2023-03-03T23:59:01.669Z,101778.00
